sensor_id;sensor_type;location;lat;lon;timestamp;temperature;humidity
12130;DHT22;6128;59.340;18.040;2024-01-25T00:02:24;2.00;99.90
12130;DHT22;6128;59.340;18.040;2024-01-25T00:04:52;2.00;99.90
12130;DHT22;6128;59.340;18.040;2024-01-25T00:07:20;2.00;99.90
12130;DHT22;6128;59.340;18.040;2024-01-25T00:09:47;2.00;99.90
12130;DHT22;6128;59.340;18.040;2024-01-25T00:12:14;2.10;99.90
12130;DHT22;6128;59.340;18.040;2024-01-25T00:14:41;2.10;99.90
12130;DHT22;6128;59.340;18.040;2024-01-25T00:17:08;2.10;99.90
12130;DHT22;6128;59.340;18.040;2024-01-25T00:19:35;2.10;99.90
12130;DHT22;6128;59.340;18.040;2024-01-25T00:22:03;2.10;99.90
12130;DHT22;6128;59.340;18.040;2024-01-25T00:24:30;2.10;99.90
12130;DHT22;6128;59.340;18.040;2024-01-25T00:26:57;2.10;99.90
12130;DHT22;6128;59.340;18.040;2024-01-25T00:29:24;2.10;99.90
12130;DHT22;6128;59.340;18.040;2024-01-25T00:31:51;2.10;99.90
12130;DHT22;6128;59.340;18.040;2024-01-25T00:34:19;2.20;99.90
12130;DHT22;6128;59.340;18.040;2024-01-25T00:36:46;2.20;99.90
12130;DHT22;6128;59.340;18.040;2024-01-25T00:39:15;2.30;99.90
12130;DHT22;6128;59.340;18.040;2024-01-25T00:41:44;2.30;99.90
12130;DHT22;6128;59.340;18.040;2024-01-25T00:44:13;2.30;99.90
12130;DHT22;6128;59.340;18.040;2024-01-25T00:46:41;2.30;99.90
12130;DHT22;6128;59.340;18.040;2024-01-25T00:49:09;2.30;99.90
12130;DHT22;6128;59.340;18.040;2024-01-25T00:51:36;2.20;99.90
12130;DHT22;6128;59.340;18.040;2024-01-25T00:54:04;2.30;99.90
12130;DHT22;6128;59.340;18.040;2024-01-25T00:56:33;2.20;99.90
12130;DHT22;6128;59.340;18.040;2024-01-25T00:59:01;2.20;99.90
12130;DHT22;6128;59.340;18.040;2024-01-25T01:01:28;2.20;99.90
12130;DHT22;6128;59.340;18.040;2024-01-25T01:03:58;2.20;99.90
12130;DHT22;6128;59.340;18.040;2024-01-25T01:06:26;2.20;99.90
12130;DHT22;6128;59.340;18.040;2024-01-25T01:08:54;2.20;99.90
12130;DHT22;6128;59.340;18.040;2024-01-25T01:11:21;2.20;99.90
12130;DHT22;6128;59.340;18.040;2024-01-25T01:13:50;2.20;99.90
12130;DHT22;6128;59.340;18.040;2024-01-25T01:16:17;2.20;99.90
12130;DHT22;6128;59.340;18.040;2024-01-25T01:18:45;2.20;99.90
12130;DHT22;6128;59.340;18.040;2024-01-25T01:21:12;2.20;99.90
12130;DHT22;6128;59.340;18.040;2024-01-25T01:23:40;2.30;99.90
12130;DHT22;6128;59.340;18.040;2024-01-25T01:26:07;2.20;99.90
12130;DHT22;6128;59.340;18.040;2024-01-25T01:28:34;2.20;99.90
12130;DHT22;6128;59.340;18.040;2024-01-25T01:31:03;2.20;99.90
12130;DHT22;6128;59.340;18.040;2024-01-25T01:33:30;2.20;99.90
12130;DHT22;6128;59.340;18.040;2024-01-25T01:35:57;2.20;99.90
12130;DHT22;6128;59.340;18.040;2024-01-25T01:38:24;2.20;99.90
12130;DHT22;6128;59.340;18.040;2024-01-25T01:40:51;2.20;99.90
12130;DHT22;6128;59.340;18.040;2024-01-25T01:43:18;2.30;99.90
12130;DHT22;6128;59.340;18.040;2024-01-25T01:45:46;2.30;99.90
12130;DHT22;6128;59.340;18.040;2024-01-25T01:48:14;2.30;99.90
12130;DHT22;6128;59.340;18.040;2024-01-25T01:50:42;2.20;99.90
12130;DHT22;6128;59.340;18.040;2024-01-25T01:53:10;2.30;99.90
12130;DHT22;6128;59.340;18.040;2024-01-25T01:55:39;2.30;99.90
12130;DHT22;6128;59.340;18.040;2024-01-25T01:58:07;2.30;99.90
12130;DHT22;6128;59.340;18.040;2024-01-25T02:00:34;2.20;99.90
12130;DHT22;6128;59.340;18.040;2024-01-25T02:03:03;2.20;99.90
12130;DHT22;6128;59.340;18.040;2024-01-25T02:05:31;2.20;99.90
12130;DHT22;6128;59.340;18.040;2024-01-25T02:07:58;2.20;99.90
12130;DHT22;6128;59.340;18.040;2024-01-25T02:10:25;2.20;99.90
12130;DHT22;6128;59.340;18.040;2024-01-25T02:12:52;2.10;99.90
12130;DHT22;6128;59.340;18.040;2024-01-25T02:15:19;2.20;99.90
12130;DHT22;6128;59.340;18.040;2024-01-25T02:17:46;2.20;99.90
12130;DHT22;6128;59.340;18.040;2024-01-25T02:20:14;2.10;99.90
12130;DHT22;6128;59.340;18.040;2024-01-25T02:22:42;2.10;99.90
12130;DHT22;6128;59.340;18.040;2024-01-25T02:25:09;2.10;99.90
12130;DHT22;6128;59.340;18.040;2024-01-25T02:27:36;2.10;99.90
12130;DHT22;6128;59.340;18.040;2024-01-25T02:30:05;2.00;99.90
12130;DHT22;6128;59.340;18.040;2024-01-25T02:32:32;2.00;99.90
12130;DHT22;6128;59.340;18.040;2024-01-25T02:35:00;2.00;99.90
12130;DHT22;6128;59.340;18.040;2024-01-25T02:37:27;2.00;99.90
12130;DHT22;6128;59.340;18.040;2024-01-25T02:39:55;2.00;99.90
12130;DHT22;6128;59.340;18.040;2024-01-25T02:42:22;2.00;99.90
12130;DHT22;6128;59.340;18.040;2024-01-25T02:44:49;2.00;99.90
12130;DHT22;6128;59.340;18.040;2024-01-25T02:47:16;1.90;99.90
12130;DHT22;6128;59.340;18.040;2024-01-25T02:49:44;1.90;99.90
12130;DHT22;6128;59.340;18.040;2024-01-25T02:52:11;1.90;99.90
12130;DHT22;6128;59.340;18.040;2024-01-25T02:54:38;1.90;99.90
12130;DHT22;6128;59.340;18.040;2024-01-25T02:57:06;1.90;99.90
12130;DHT22;6128;59.340;18.040;2024-01-25T02:59:33;1.90;99.90
12130;DHT22;6128;59.340;18.040;2024-01-25T03:02:01;1.90;99.90
12130;DHT22;6128;59.340;18.040;2024-01-25T03:04:28;1.90;99.90
12130;DHT22;6128;59.340;18.040;2024-01-25T03:06:55;1.90;99.90
12130;DHT22;6128;59.340;18.040;2024-01-25T03:09:22;1.90;99.90
12130;DHT22;6128;59.340;18.040;2024-01-25T03:11:49;1.90;99.90
12130;DHT22;6128;59.340;18.040;2024-01-25T03:14:18;1.90;99.90
12130;DHT22;6128;59.340;18.040;2024-01-25T03:16:45;1.90;99.90
12130;DHT22;6128;59.340;18.040;2024-01-25T03:19:12;1.90;99.90
12130;DHT22;6128;59.340;18.040;2024-01-25T03:21:39;1.80;99.90
12130;DHT22;6128;59.340;18.040;2024-01-25T03:24:06;1.80;99.90
12130;DHT22;6128;59.340;18.040;2024-01-25T03:26:34;1.80;99.90
12130;DHT22;6128;59.340;18.040;2024-01-25T03:29:01;1.80;99.90
12130;DHT22;6128;59.340;18.040;2024-01-25T03:31:29;1.70;99.90
12130;DHT22;6128;59.340;18.040;2024-01-25T03:33:56;1.70;99.90
12130;DHT22;6128;59.340;18.040;2024-01-25T03:36:23;1.70;99.90
12130;DHT22;6128;59.340;18.040;2024-01-25T03:38:50;1.70;99.90
12130;DHT22;6128;59.340;18.040;2024-01-25T03:41:17;1.80;99.90
12130;DHT22;6128;59.340;18.040;2024-01-25T03:43:45;1.80;99.90
12130;DHT22;6128;59.340;18.040;2024-01-25T03:46:12;1.80;99.90
12130;DHT22;6128;59.340;18.040;2024-01-25T03:48:41;1.80;99.90
12130;DHT22;6128;59.340;18.040;2024-01-25T03:51:08;1.80;99.90
12130;DHT22;6128;59.340;18.040;2024-01-25T03:53:35;1.80;99.90
12130;DHT22;6128;59.340;18.040;2024-01-25T03:56:02;1.70;99.90
12130;DHT22;6128;59.340;18.040;2024-01-25T03:58:29;1.70;99.90
12130;DHT22;6128;59.340;18.040;2024-01-25T04:00:56;1.60;99.90
12130;DHT22;6128;59.340;18.040;2024-01-25T04:03:24;1.60;99.90
12130;DHT22;6128;59.340;18.040;2024-01-25T04:05:52;1.60;99.90
12130;DHT22;6128;59.340;18.040;2024-01-25T04:08:19;1.60;99.90
12130;DHT22;6128;59.340;18.040;2024-01-25T04:10:46;1.50;99.90
12130;DHT22;6128;59.340;18.040;2024-01-25T04:13:13;1.50;99.90
12130;DHT22;6128;59.340;18.040;2024-01-25T04:15:40;1.50;99.90
12130;DHT22;6128;59.340;18.040;2024-01-25T04:18:07;1.40;99.90
12130;DHT22;6128;59.340;18.040;2024-01-25T04:20:34;1.40;99.90
12130;DHT22;6128;59.340;18.040;2024-01-25T04:23:03;1.40;99.90
12130;DHT22;6128;59.340;18.040;2024-01-25T04:25:30;1.40;99.90
12130;DHT22;6128;59.340;18.040;2024-01-25T04:27:57;1.40;99.90
12130;DHT22;6128;59.340;18.040;2024-01-25T04:30:25;1.40;99.90
12130;DHT22;6128;59.340;18.040;2024-01-25T04:32:52;1.50;99.90
12130;DHT22;6128;59.340;18.040;2024-01-25T04:35:20;1.50;99.90
12130;DHT22;6128;59.340;18.040;2024-01-25T04:37:47;1.50;99.90
12130;DHT22;6128;59.340;18.040;2024-01-25T04:40:16;1.50;99.90
12130;DHT22;6128;59.340;18.040;2024-01-25T04:42:47;1.50;99.90
12130;DHT22;6128;59.340;18.040;2024-01-25T04:45:14;1.50;99.90
12130;DHT22;6128;59.340;18.040;2024-01-25T04:47:42;1.50;99.90
12130;DHT22;6128;59.340;18.040;2024-01-25T04:50:09;1.50;99.90
12130;DHT22;6128;59.340;18.040;2024-01-25T04:52:36;1.60;99.90
12130;DHT22;6128;59.340;18.040;2024-01-25T04:55:04;1.60;99.90
12130;DHT22;6128;59.340;18.040;2024-01-25T04:57:32;1.60;99.90
12130;DHT22;6128;59.340;18.040;2024-01-25T04:59:59;1.60;99.90
12130;DHT22;6128;59.340;18.040;2024-01-25T05:02:26;1.60;99.90
12130;DHT22;6128;59.340;18.040;2024-01-25T05:04:53;1.50;99.90
12130;DHT22;6128;59.340;18.040;2024-01-25T05:07:21;1.60;99.90
12130;DHT22;6128;59.340;18.040;2024-01-25T05:09:48;1.60;99.90
12130;DHT22;6128;59.340;18.040;2024-01-25T05:12:15;1.50;99.90
12130;DHT22;6128;59.340;18.040;2024-01-25T05:14:43;1.50;99.90
12130;DHT22;6128;59.340;18.040;2024-01-25T05:17:10;1.60;99.90
12130;DHT22;6128;59.340;18.040;2024-01-25T05:19:37;1.60;99.90
12130;DHT22;6128;59.340;18.040;2024-01-25T05:22:04;1.60;99.90
12130;DHT22;6128;59.340;18.040;2024-01-25T05:24:33;1.60;99.90
12130;DHT22;6128;59.340;18.040;2024-01-25T05:27:00;1.50;99.90
12130;DHT22;6128;59.340;18.040;2024-01-25T05:29:27;1.50;99.90
12130;DHT22;6128;59.340;18.040;2024-01-25T05:31:56;1.50;99.90
12130;DHT22;6128;59.340;18.040;2024-01-25T05:34:23;1.40;99.90
12130;DHT22;6128;59.340;18.040;2024-01-25T05:36:51;1.40;99.90
12130;DHT22;6128;59.340;18.040;2024-01-25T05:39:18;1.40;99.90
12130;DHT22;6128;59.340;18.040;2024-01-25T05:41:45;1.40;99.90
12130;DHT22;6128;59.340;18.040;2024-01-25T05:44:12;1.40;99.90
12130;DHT22;6128;59.340;18.040;2024-01-25T05:46:39;1.40;99.90
12130;DHT22;6128;59.340;18.040;2024-01-25T05:49:08;1.40;99.90
12130;DHT22;6128;59.340;18.040;2024-01-25T05:51:36;1.40;99.90
12130;DHT22;6128;59.340;18.040;2024-01-25T05:54:03;1.40;99.90
12130;DHT22;6128;59.340;18.040;2024-01-25T05:56:30;1.40;99.90
12130;DHT22;6128;59.340;18.040;2024-01-25T05:58:57;1.40;99.90
12130;DHT22;6128;59.340;18.040;2024-01-25T06:01:24;1.30;99.90
12130;DHT22;6128;59.340;18.040;2024-01-25T06:03:51;1.30;99.90
12130;DHT22;6128;59.340;18.040;2024-01-25T06:06:20;1.30;99.90
12130;DHT22;6128;59.340;18.040;2024-01-25T06:08:47;1.30;99.90
12130;DHT22;6128;59.340;18.040;2024-01-25T06:11:14;1.30;99.90
12130;DHT22;6128;59.340;18.040;2024-01-25T06:13:44;1.30;99.90
12130;DHT22;6128;59.340;18.040;2024-01-25T06:16:11;1.30;99.90
12130;DHT22;6128;59.340;18.040;2024-01-25T06:18:38;1.20;99.90
12130;DHT22;6128;59.340;18.040;2024-01-25T06:21:05;1.20;99.90
12130;DHT22;6128;59.340;18.040;2024-01-25T06:23:34;1.20;99.90
12130;DHT22;6128;59.340;18.040;2024-01-25T06:26:01;1.30;99.90
12130;DHT22;6128;59.340;18.040;2024-01-25T06:28:28;1.30;99.90
12130;DHT22;6128;59.340;18.040;2024-01-25T06:30:55;1.20;99.90
12130;DHT22;6128;59.340;18.040;2024-01-25T06:33:22;1.20;99.90
12130;DHT22;6128;59.340;18.040;2024-01-25T06:35:49;1.30;99.90
12130;DHT22;6128;59.340;18.040;2024-01-25T06:38:16;1.20;99.90
12130;DHT22;6128;59.340;18.040;2024-01-25T06:40:45;1.30;99.90
12130;DHT22;6128;59.340;18.040;2024-01-25T06:43:13;1.30;99.90
12130;DHT22;6128;59.340;18.040;2024-01-25T06:45:40;1.30;99.90
12130;DHT22;6128;59.340;18.040;2024-01-25T06:48:07;1.30;99.90
12130;DHT22;6128;59.340;18.040;2024-01-25T06:50:35;1.30;99.90
12130;DHT22;6128;59.340;18.040;2024-01-25T06:53:02;1.30;99.90
12130;DHT22;6128;59.340;18.040;2024-01-25T06:55:29;1.30;99.90
12130;DHT22;6128;59.340;18.040;2024-01-25T06:57:58;1.30;99.90
12130;DHT22;6128;59.340;18.040;2024-01-25T07:00:25;1.30;99.90
12130;DHT22;6128;59.340;18.040;2024-01-25T07:02:52;1.30;99.90
12130;DHT22;6128;59.340;18.040;2024-01-25T07:05:19;1.30;99.90
12130;DHT22;6128;59.340;18.040;2024-01-25T07:07:47;1.20;99.90
12130;DHT22;6128;59.340;18.040;2024-01-25T07:10:14;1.20;99.90
12130;DHT22;6128;59.340;18.040;2024-01-25T07:12:41;1.20;99.90
12130;DHT22;6128;59.340;18.040;2024-01-25T07:15:10;1.10;99.90
12130;DHT22;6128;59.340;18.040;2024-01-25T07:17:37;1.10;99.90
12130;DHT22;6128;59.340;18.040;2024-01-25T07:20:05;1.10;99.90
12130;DHT22;6128;59.340;18.040;2024-01-25T07:22:33;1.10;99.90
12130;DHT22;6128;59.340;18.040;2024-01-25T07:25:00;1.10;99.90
12130;DHT22;6128;59.340;18.040;2024-01-25T07:27:27;1.10;99.90
12130;DHT22;6128;59.340;18.040;2024-01-25T07:29:56;1.10;99.90
12130;DHT22;6128;59.340;18.040;2024-01-25T07:32:24;1.00;99.90
12130;DHT22;6128;59.340;18.040;2024-01-25T07:34:52;1.10;99.90
12130;DHT22;6128;59.340;18.040;2024-01-25T07:37:19;1.10;99.90
12130;DHT22;6128;59.340;18.040;2024-01-25T07:39:46;1.00;99.90
12130;DHT22;6128;59.340;18.040;2024-01-25T07:42:13;1.00;99.90
12130;DHT22;6128;59.340;18.040;2024-01-25T07:44:41;1.00;99.90
12130;DHT22;6128;59.340;18.040;2024-01-25T07:47:08;1.00;99.90
12130;DHT22;6128;59.340;18.040;2024-01-25T07:49:36;1.00;99.90
12130;DHT22;6128;59.340;18.040;2024-01-25T07:52:04;1.10;99.90
12130;DHT22;6128;59.340;18.040;2024-01-25T07:54:31;1.00;99.90
12130;DHT22;6128;59.340;18.040;2024-01-25T07:56:58;1.10;99.90
12130;DHT22;6128;59.340;18.040;2024-01-25T07:59:25;1.10;99.90
12130;DHT22;6128;59.340;18.040;2024-01-25T08:01:52;1.10;99.90
12130;DHT22;6128;59.340;18.040;2024-01-25T08:04:19;1.10;99.90
12130;DHT22;6128;59.340;18.040;2024-01-25T08:06:48;1.10;99.90
12130;DHT22;6128;59.340;18.040;2024-01-25T08:09:15;1.10;99.90
12130;DHT22;6128;59.340;18.040;2024-01-25T08:11:42;1.10;99.90
12130;DHT22;6128;59.340;18.040;2024-01-25T08:14:10;1.10;99.90
12130;DHT22;6128;59.340;18.040;2024-01-25T08:16:37;1.10;99.90
12130;DHT22;6128;59.340;18.040;2024-01-25T08:19:04;1.10;99.90
12130;DHT22;6128;59.340;18.040;2024-01-25T08:21:31;1.10;99.90
12130;DHT22;6128;59.340;18.040;2024-01-25T08:24:00;1.10;99.90
12130;DHT22;6128;59.340;18.040;2024-01-25T08:26:27;1.10;99.90
12130;DHT22;6128;59.340;18.040;2024-01-25T08:28:55;1.10;99.90
12130;DHT22;6128;59.340;18.040;2024-01-25T08:31:22;1.20;99.90
12130;DHT22;6128;59.340;18.040;2024-01-25T08:33:49;1.20;99.90
12130;DHT22;6128;59.340;18.040;2024-01-25T08:36:17;1.20;99.90
12130;DHT22;6128;59.340;18.040;2024-01-25T08:38:44;1.20;99.90
12130;DHT22;6128;59.340;18.040;2024-01-25T08:41:13;1.20;99.90
12130;DHT22;6128;59.340;18.040;2024-01-25T08:43:41;1.10;99.90
12130;DHT22;6128;59.340;18.040;2024-01-25T08:46:08;1.10;99.90
12130;DHT22;6128;59.340;18.040;2024-01-25T08:48:35;1.20;99.90
12130;DHT22;6128;59.340;18.040;2024-01-25T08:51:03;1.20;99.90
12130;DHT22;6128;59.340;18.040;2024-01-25T08:53:30;1.20;99.90
12130;DHT22;6128;59.340;18.040;2024-01-25T08:55:57;1.30;99.90
12130;DHT22;6128;59.340;18.040;2024-01-25T08:58:26;1.20;99.90
12130;DHT22;6128;59.340;18.040;2024-01-25T09:00:53;1.30;99.90
12130;DHT22;6128;59.340;18.040;2024-01-25T09:03:20;1.30;99.90
12130;DHT22;6128;59.340;18.040;2024-01-25T09:05:48;1.40;99.90
12130;DHT22;6128;59.340;18.040;2024-01-25T09:08:15;1.40;99.90
12130;DHT22;6128;59.340;18.040;2024-01-25T09:10:43;1.40;99.90
12130;DHT22;6128;59.340;18.040;2024-01-25T09:13:10;1.40;99.90
12130;DHT22;6128;59.340;18.040;2024-01-25T09:15:38;1.50;99.90
12130;DHT22;6128;59.340;18.040;2024-01-25T09:18:05;1.50;99.90
12130;DHT22;6128;59.340;18.040;2024-01-25T09:20:33;1.50;99.90
12130;DHT22;6128;59.340;18.040;2024-01-25T09:23:00;1.50;99.90
12130;DHT22;6128;59.340;18.040;2024-01-25T09:25:27;1.50;99.90
12130;DHT22;6128;59.340;18.040;2024-01-25T09:27:54;1.50;99.90
12130;DHT22;6128;59.340;18.040;2024-01-25T09:30:22;1.40;99.90
12130;DHT22;6128;59.340;18.040;2024-01-25T09:32:51;1.40;99.90
12130;DHT22;6128;59.340;18.040;2024-01-25T09:35:18;1.30;99.90
12130;DHT22;6128;59.340;18.040;2024-01-25T09:37:45;1.30;99.90
12130;DHT22;6128;59.340;18.040;2024-01-25T09:40:13;1.30;99.90
12130;DHT22;6128;59.340;18.040;2024-01-25T09:42:40;1.30;99.90
12130;DHT22;6128;59.340;18.040;2024-01-25T09:45:08;1.30;99.90
12130;DHT22;6128;59.340;18.040;2024-01-25T09:47:38;1.30;99.90
12130;DHT22;6128;59.340;18.040;2024-01-25T09:50:08;1.30;99.90
12130;DHT22;6128;59.340;18.040;2024-01-25T09:52:36;1.30;99.90
12130;DHT22;6128;59.340;18.040;2024-01-25T09:55:07;1.30;99.90
12130;DHT22;6128;59.340;18.040;2024-01-25T09:57:36;1.20;99.90
12130;DHT22;6128;59.340;18.040;2024-01-25T10:00:04;1.20;99.90
12130;DHT22;6128;59.340;18.040;2024-01-25T10:02:39;1.20;99.90
12130;DHT22;6128;59.340;18.040;2024-01-25T10:05:08;1.20;99.90
12130;DHT22;6128;59.340;18.040;2024-01-25T10:07:45;1.20;99.90
12130;DHT22;6128;59.340;18.040;2024-01-25T10:10:16;1.20;99.90
12130;DHT22;6128;59.340;18.040;2024-01-25T10:12:43;1.10;99.90
12130;DHT22;6128;59.340;18.040;2024-01-25T10:15:10;1.10;99.90
12130;DHT22;6128;59.340;18.040;2024-01-25T10:17:38;1.00;99.90
12130;DHT22;6128;59.340;18.040;2024-01-25T10:20:08;1.00;99.90
12130;DHT22;6128;59.340;18.040;2024-01-25T10:22:37;1.00;99.90
12130;DHT22;6128;59.340;18.040;2024-01-25T10:25:11;1.10;99.90
12130;DHT22;6128;59.340;18.040;2024-01-25T10:27:39;1.10;99.90
12130;DHT22;6128;59.340;18.040;2024-01-25T10:30:10;1.20;99.90
12130;DHT22;6128;59.340;18.040;2024-01-25T10:32:39;1.20;99.90
12130;DHT22;6128;59.340;18.040;2024-01-25T10:35:12;1.20;99.90
12130;DHT22;6128;59.340;18.040;2024-01-25T10:37:40;1.20;99.90
12130;DHT22;6128;59.340;18.040;2024-01-25T10:40:10;1.20;99.90
12130;DHT22;6128;59.340;18.040;2024-01-25T10:42:37;1.10;99.90
12130;DHT22;6128;59.340;18.040;2024-01-25T10:45:05;1.10;99.90
12130;DHT22;6128;59.340;18.040;2024-01-25T10:47:34;1.10;99.90
12130;DHT22;6128;59.340;18.040;2024-01-25T10:50:02;1.10;99.90
12130;DHT22;6128;59.340;18.040;2024-01-25T10:52:31;1.10;99.90
12130;DHT22;6128;59.340;18.040;2024-01-25T10:54:58;1.20;99.90
12130;DHT22;6128;59.340;18.040;2024-01-25T10:57:25;1.10;99.90
12130;DHT22;6128;59.340;18.040;2024-01-25T10:59:52;1.10;99.90
12130;DHT22;6128;59.340;18.040;2024-01-25T11:02:19;1.10;99.90
12130;DHT22;6128;59.340;18.040;2024-01-25T11:04:53;1.10;99.90
12130;DHT22;6128;59.340;18.040;2024-01-25T11:07:20;1.20;99.90
12130;DHT22;6128;59.340;18.040;2024-01-25T11:09:52;1.10;99.90
12130;DHT22;6128;59.340;18.040;2024-01-25T11:12:20;1.20;99.90
12130;DHT22;6128;59.340;18.040;2024-01-25T11:14:54;1.20;99.90
12130;DHT22;6128;59.340;18.040;2024-01-25T11:17:22;1.20;99.90
12130;DHT22;6128;59.340;18.040;2024-01-25T11:19:49;1.20;99.90
12130;DHT22;6128;59.340;18.040;2024-01-25T11:22:17;1.20;99.90
12130;DHT22;6128;59.340;18.040;2024-01-25T11:24:44;1.20;99.90
12130;DHT22;6128;59.340;18.040;2024-01-25T11:27:12;1.20;99.90
12130;DHT22;6128;59.340;18.040;2024-01-25T11:29:41;1.20;99.90
12130;DHT22;6128;59.340;18.040;2024-01-25T11:32:09;1.20;99.90
12130;DHT22;6128;59.340;18.040;2024-01-25T11:34:37;1.20;99.90
12130;DHT22;6128;59.340;18.040;2024-01-25T11:37:04;1.20;99.90
12130;DHT22;6128;59.340;18.040;2024-01-25T11:39:32;1.10;99.90
12130;DHT22;6128;59.340;18.040;2024-01-25T11:41:59;1.10;99.90
12130;DHT22;6128;59.340;18.040;2024-01-25T11:44:27;1.00;99.90
12130;DHT22;6128;59.340;18.040;2024-01-25T11:46:57;1.00;99.90
12130;DHT22;6128;59.340;18.040;2024-01-25T11:49:25;0.90;99.90
12130;DHT22;6128;59.340;18.040;2024-01-25T11:51:52;0.90;99.90
12130;DHT22;6128;59.340;18.040;2024-01-25T11:54:19;0.80;99.90
12130;DHT22;6128;59.340;18.040;2024-01-25T11:56:46;0.70;99.90
12130;DHT22;6128;59.340;18.040;2024-01-25T11:59:14;0.70;99.90
12130;DHT22;6128;59.340;18.040;2024-01-25T12:01:43;0.70;99.90
12130;DHT22;6128;59.340;18.040;2024-01-25T12:04:10;0.70;99.90
12130;DHT22;6128;59.340;18.040;2024-01-25T12:06:37;0.70;99.90
12130;DHT22;6128;59.340;18.040;2024-01-25T12:09:08;0.70;99.90
12130;DHT22;6128;59.340;18.040;2024-01-25T12:11:36;0.70;99.90
12130;DHT22;6128;59.340;18.040;2024-01-25T12:14:03;0.70;99.90
12130;DHT22;6128;59.340;18.040;2024-01-25T12:16:31;0.70;99.90
12130;DHT22;6128;59.340;18.040;2024-01-25T12:19:00;0.70;99.90
12130;DHT22;6128;59.340;18.040;2024-01-25T12:21:28;0.60;99.90
12130;DHT22;6128;59.340;18.040;2024-01-25T12:23:55;0.60;99.90
12130;DHT22;6128;59.340;18.040;2024-01-25T12:26:22;0.60;99.90
12130;DHT22;6128;59.340;18.040;2024-01-25T12:28:49;0.60;99.90
12130;DHT22;6128;59.340;18.040;2024-01-25T12:31:16;0.70;99.90
12130;DHT22;6128;59.340;18.040;2024-01-25T12:33:43;0.60;99.90
12130;DHT22;6128;59.340;18.040;2024-01-25T12:36:11;0.60;99.90
12130;DHT22;6128;59.340;18.040;2024-01-25T12:38:38;0.70;99.90
12130;DHT22;6128;59.340;18.040;2024-01-25T12:41:06;0.70;99.90
12130;DHT22;6128;59.340;18.040;2024-01-25T12:43:33;0.70;99.90
12130;DHT22;6128;59.340;18.040;2024-01-25T12:46:00;0.70;99.90
12130;DHT22;6128;59.340;18.040;2024-01-25T12:48:27;0.60;99.90
12130;DHT22;6128;59.340;18.040;2024-01-25T12:50:54;0.60;99.90
12130;DHT22;6128;59.340;18.040;2024-01-25T12:53:23;0.60;99.90
12130;DHT22;6128;59.340;18.040;2024-01-25T12:55:50;0.60;99.90
12130;DHT22;6128;59.340;18.040;2024-01-25T12:58:17;0.70;99.90
12130;DHT22;6128;59.340;18.040;2024-01-25T13:00:44;0.70;99.90
12130;DHT22;6128;59.340;18.040;2024-01-25T13:03:12;0.70;99.90
12130;DHT22;6128;59.340;18.040;2024-01-25T13:05:39;0.70;99.90
12130;DHT22;6128;59.340;18.040;2024-01-25T13:08:07;0.60;99.90
12130;DHT22;6128;59.340;18.040;2024-01-25T13:10:35;0.70;99.90
12130;DHT22;6128;59.340;18.040;2024-01-25T13:13:02;0.70;99.90
12130;DHT22;6128;59.340;18.040;2024-01-25T13:15:29;0.70;99.90
12130;DHT22;6128;59.340;18.040;2024-01-25T13:17:57;0.70;99.90
12130;DHT22;6128;59.340;18.040;2024-01-25T13:20:26;0.70;99.90
12130;DHT22;6128;59.340;18.040;2024-01-25T13:22:53;0.80;99.90
12130;DHT22;6128;59.340;18.040;2024-01-25T13:25:20;0.80;99.90
12130;DHT22;6128;59.340;18.040;2024-01-25T13:27:49;0.90;99.90
12130;DHT22;6128;59.340;18.040;2024-01-25T13:30:17;0.80;99.90
12130;DHT22;6128;59.340;18.040;2024-01-25T13:32:44;0.80;99.90
12130;DHT22;6128;59.340;18.040;2024-01-25T13:35:12;0.70;99.90
12130;DHT22;6128;59.340;18.040;2024-01-25T13:37:39;0.60;99.90
12130;DHT22;6128;59.340;18.040;2024-01-25T13:40:07;0.60;99.90
12130;DHT22;6128;59.340;18.040;2024-01-25T13:42:34;0.40;99.90
12130;DHT22;6128;59.340;18.040;2024-01-25T13:45:04;0.40;99.90
12130;DHT22;6128;59.340;18.040;2024-01-25T13:47:31;0.30;99.90
12130;DHT22;6128;59.340;18.040;2024-01-25T13:49:58;0.30;99.90
12130;DHT22;6128;59.340;18.040;2024-01-25T13:52:25;0.30;99.90
12130;DHT22;6128;59.340;18.040;2024-01-25T13:54:52;0.20;99.90
12130;DHT22;6128;59.340;18.040;2024-01-25T13:57:20;0.20;99.90
12130;DHT22;6128;59.340;18.040;2024-01-25T13:59:49;0.20;99.90
12130;DHT22;6128;59.340;18.040;2024-01-25T14:02:17;0.10;99.90
12130;DHT22;6128;59.340;18.040;2024-01-25T14:04:45;0.20;99.90
12130;DHT22;6128;59.340;18.040;2024-01-25T14:07:14;0.20;99.90
12130;DHT22;6128;59.340;18.040;2024-01-25T14:09:41;0.20;99.90
12130;DHT22;6128;59.340;18.040;2024-01-25T14:12:08;0.20;99.90
12130;DHT22;6128;59.340;18.040;2024-01-25T14:14:36;0.20;99.90
12130;DHT22;6128;59.340;18.040;2024-01-25T14:17:03;0.20;99.90
12130;DHT22;6128;59.340;18.040;2024-01-25T14:19:32;0.20;99.90
12130;DHT22;6128;59.340;18.040;2024-01-25T14:21:59;0.20;99.90
12130;DHT22;6128;59.340;18.040;2024-01-25T14:24:26;0.10;99.90
12130;DHT22;6128;59.340;18.040;2024-01-25T14:26:53;0.10;99.90
12130;DHT22;6128;59.340;18.040;2024-01-25T14:29:20;0.10;99.90
12130;DHT22;6128;59.340;18.040;2024-01-25T14:31:47;0.10;99.90
12130;DHT22;6128;59.340;18.040;2024-01-25T14:34:14;0.10;99.90
12130;DHT22;6128;59.340;18.040;2024-01-25T14:36:43;0.10;99.90
12130;DHT22;6128;59.340;18.040;2024-01-25T14:39:10;0.10;99.90
12130;DHT22;6128;59.340;18.040;2024-01-25T14:41:37;0.10;99.90
12130;DHT22;6128;59.340;18.040;2024-01-25T14:44:04;0.20;99.90
12130;DHT22;6128;59.340;18.040;2024-01-25T14:46:31;0.20;99.90
12130;DHT22;6128;59.340;18.040;2024-01-25T14:48:58;0.20;99.90
12130;DHT22;6128;59.340;18.040;2024-01-25T14:51:25;0.20;99.90
12130;DHT22;6128;59.340;18.040;2024-01-25T14:53:54;0.30;99.90
12130;DHT22;6128;59.340;18.040;2024-01-25T14:56:21;0.20;99.90
12130;DHT22;6128;59.340;18.040;2024-01-25T14:58:48;0.20;99.90
12130;DHT22;6128;59.340;18.040;2024-01-25T15:01:15;0.20;99.90
12130;DHT22;6128;59.340;18.040;2024-01-25T15:03:44;0.10;99.90
12130;DHT22;6128;59.340;18.040;2024-01-25T15:06:11;0.10;99.90
12130;DHT22;6128;59.340;18.040;2024-01-25T15:08:39;0.10;99.90
12130;DHT22;6128;59.340;18.040;2024-01-25T15:11:09;0.10;99.90
12130;DHT22;6128;59.340;18.040;2024-01-25T15:13:37;0.20;99.90
12130;DHT22;6128;59.340;18.040;2024-01-25T15:16:04;0.20;99.90
12130;DHT22;6128;59.340;18.040;2024-01-25T15:18:31;0.20;99.90
12130;DHT22;6128;59.340;18.040;2024-01-25T15:20:58;0.20;99.90
12130;DHT22;6128;59.340;18.040;2024-01-25T15:23:25;0.20;99.90
12130;DHT22;6128;59.340;18.040;2024-01-25T15:25:53;0.20;99.90
12130;DHT22;6128;59.340;18.040;2024-01-25T15:28:22;0.30;99.90
12130;DHT22;6128;59.340;18.040;2024-01-25T15:30:49;0.20;99.90
12130;DHT22;6128;59.340;18.040;2024-01-25T15:33:16;0.20;99.90
12130;DHT22;6128;59.340;18.040;2024-01-25T15:35:43;0.10;99.90
12130;DHT22;6128;59.340;18.040;2024-01-25T15:38:11;0.10;99.90
12130;DHT22;6128;59.340;18.040;2024-01-25T15:40:41;0.20;99.90
12130;DHT22;6128;59.340;18.040;2024-01-25T15:43:08;0.10;99.90
12130;DHT22;6128;59.340;18.040;2024-01-25T15:45:37;0.10;99.90
12130;DHT22;6128;59.340;18.040;2024-01-25T15:48:04;0.10;99.90